createdAt,value
2022-12-01T00:01:30.564Z,26.60
2022-12-01T00:03:57.406Z,23.85
2022-12-01T00:06:24.233Z,21.60
2022-12-01T00:09:15.150Z,25.75
2022-12-01T00:11:47.527Z,26.70
2022-12-01T00:14:14.678Z,26.83
2022-12-01T00:16:43.830Z,27.73
2022-12-01T00:19:11.745Z,28.15
2022-12-01T00:21:38.404Z,29.63
2022-12-01T00:24:05.377Z,32.95
2022-12-01T00:26:32.074Z,31.77
2022-12-01T00:28:59.817Z,31.27
2022-12-01T00:31:27.351Z,32.20
2022-12-01T00:33:54.382Z,33.17
2022-12-01T00:36:21.492Z,32.30
2022-12-01T00:38:51.890Z,32.80
2022-12-01T00:41:18.655Z,36.30
2022-12-01T00:43:45.348Z,35.50
2022-12-01T00:46:12.077Z,34.78
2022-12-01T00:48:38.864Z,37.53
2022-12-01T00:51:05.840Z,36.60
2022-12-01T00:53:32.716Z,33.53
2022-12-01T00:55:59.821Z,36.35
2022-12-01T00:58:26.544Z,32.55
2022-12-01T01:01:02.116Z,33.20
2022-12-01T01:03:29.915Z,30.42
2022-12-01T01:06:03.014Z,32.85
2022-12-01T01:08:29.741Z,29.88
2022-12-01T01:10:59.441Z,28.52
2022-12-01T01:13:26.280Z,30.42
2022-12-01T01:16:14.435Z,29.58
2022-12-01T01:18:41.249Z,31.08
2022-12-01T01:21:11.256Z,28.63
2022-12-01T01:26:14.379Z,31.92
2022-12-01T01:28:44.135Z,30.40
2022-12-01T01:31:13.377Z,31.50
2022-12-01T01:33:40.355Z,29.20
2022-12-01T01:36:08.018Z,27.77
2022-12-01T01:38:35.120Z,30.27
2022-12-01T01:41:02.252Z,31.08
2022-12-01T01:43:48.721Z,33.13
2022-12-01T01:46:18.760Z,31.25
2022-12-01T01:51:44.975Z,31.60
2022-12-01T01:54:18.017Z,32.67
2022-12-01T01:56:48.246Z,33.10
2022-12-01T01:59:19.102Z,27.42
2022-12-01T02:01:52.891Z,27.88
2022-12-01T02:04:20.592Z,26.00
2022-12-01T02:06:47.346Z,24.10
2022-12-01T02:09:16.151Z,27.20
2022-12-01T02:11:50.195Z,28.90
2022-12-01T02:14:34.297Z,30.33
2022-12-01T02:17:12.800Z,25.15
2022-12-01T02:20:17.875Z,26.77
2022-12-01T02:23:02.917Z,28.42
2022-12-01T02:26:02.193Z,27.58
2022-12-01T02:28:59.533Z,27.10
2022-12-01T02:31:57.599Z,27.10
2022-12-01T02:34:43.705Z,30.17
2022-12-01T02:37:13.544Z,26.05
2022-12-01T02:40:15.380Z,26.45
2022-12-01T02:42:54.272Z,25.80
2022-12-01T02:45:28.107Z,27.42
2022-12-01T02:47:59.123Z,24.45
2022-12-01T02:50:27.074Z,24.65
2022-12-01T02:52:54.751Z,26.80
2022-12-01T02:55:21.760Z,26.92
2022-12-01T02:57:48.538Z,27.55
2022-12-01T03:00:16.913Z,24.25
2022-12-01T03:02:58.882Z,27.10
2022-12-01T03:05:46.439Z,23.63
2022-12-01T03:08:31.180Z,23.15
2022-12-01T03:10:59.585Z,25.55
2022-12-01T03:13:51.640Z,22.85
2022-12-01T03:16:39.837Z,25.05
2022-12-01T03:19:36.111Z,23.30
2022-12-01T03:22:12.666Z,23.85
2022-12-01T03:24:42.977Z,24.90
2022-12-01T03:27:13.882Z,27.30
2022-12-01T03:29:45.007Z,25.75
2022-12-01T03:32:18.462Z,24.65
2022-12-01T03:35:04.795Z,25.77
2022-12-01T03:37:51.525Z,24.92
2022-12-01T03:40:22.633Z,25.80
2022-12-01T03:42:59.476Z,26.73
2022-12-01T03:45:47.694Z,28.10
2022-12-01T03:48:14.799Z,28.15
2022-12-01T03:50:56.696Z,26.02
2022-12-01T03:53:32.779Z,26.65
2022-12-01T03:56:03.415Z,27.75
2022-12-01T03:58:38.122Z,31.23
2022-12-01T04:01:07.198Z,25.10
2022-12-01T04:03:33.865Z,25.70
2022-12-01T04:06:01.192Z,25.38
2022-12-01T04:08:28.261Z,22.10
2022-12-01T04:10:55.040Z,26.60
2022-12-01T04:13:25.589Z,26.70
2022-12-01T04:15:56.233Z,24.90
2022-12-01T04:18:23.060Z,25.17
2022-12-01T04:20:50.746Z,24.73
2022-12-01T04:23:36.140Z,21.15
2022-12-01T04:26:04.837Z,23.67
2022-12-01T04:28:31.580Z,24.25
2022-12-01T04:30:58.379Z,25.02
2022-12-01T04:33:25.182Z,24.85
2022-12-01T04:36:01.265Z,27.88
2022-12-01T04:38:30.933Z,26.58
2022-12-01T04:40:58.042Z,28.45
2022-12-01T04:43:24.913Z,23.88
2022-12-01T04:45:51.675Z,26.80
2022-12-01T04:48:18.331Z,27.73
2022-12-01T04:50:45.135Z,24.63
2022-12-01T04:53:11.771Z,25.85
2022-12-01T04:55:39.331Z,23.42
2022-12-01T04:58:06.169Z,23.83
2022-12-01T05:00:33.799Z,25.58
2022-12-01T05:03:01.085Z,21.70
2022-12-01T05:05:27.996Z,25.90
2022-12-01T05:07:54.962Z,23.90
2022-12-01T05:10:22.490Z,24.92
2022-12-01T05:12:49.776Z,25.58
2022-12-01T05:15:16.928Z,26.80
2022-12-01T05:17:44.031Z,23.08
2022-12-01T05:20:37.974Z,25.85
2022-12-01T05:23:06.266Z,23.88
2022-12-01T05:25:33.731Z,27.20
2022-12-01T05:28:00.677Z,25.20
2022-12-01T05:30:28.889Z,23.10
2022-12-01T05:32:55.956Z,24.83
2022-12-01T05:35:22.634Z,26.75
2022-12-01T05:37:49.334Z,26.92
2022-12-01T05:40:16.134Z,24.88
2022-12-01T05:42:42.878Z,24.98
2022-12-01T05:45:10.092Z,28.30
2022-12-01T05:47:36.887Z,27.90
2022-12-01T05:50:05.697Z,22.45
2022-12-01T05:52:35.195Z,25.83
2022-12-01T05:55:03.417Z,25.50
2022-12-01T05:57:30.978Z,26.48
2022-12-01T05:59:57.971Z,25.27
2022-12-01T06:02:26.867Z,27.60
2022-12-01T06:04:53.773Z,20.60
2022-12-01T06:07:22.990Z,28.40
2022-12-01T06:09:50.291Z,22.88
2022-12-01T06:12:17.128Z,25.52
2022-12-01T06:14:43.856Z,23.27
2022-12-01T06:17:10.820Z,25.98
2022-12-01T06:19:37.786Z,25.70
2022-12-01T06:22:04.672Z,26.00
2022-12-01T06:24:31.351Z,26.85
2022-12-01T06:26:58.216Z,26.02
2022-12-01T06:29:24.940Z,24.70
2022-12-01T06:31:51.898Z,25.08
2022-12-01T06:34:18.540Z,27.05
2022-12-01T06:36:45.178Z,28.30
2022-12-01T06:39:11.846Z,23.55
2022-12-01T06:41:38.948Z,28.90
2022-12-01T06:44:05.901Z,23.73
2022-12-01T06:46:32.720Z,25.85
2022-12-01T06:48:59.518Z,23.55
2022-12-01T06:51:26.798Z,25.38
2022-12-01T06:53:55.013Z,25.35
2022-12-01T06:56:22.765Z,24.88
2022-12-01T06:58:50.568Z,24.40
2022-12-01T07:01:18.114Z,26.00
2022-12-01T07:03:51.764Z,27.60
2022-12-01T07:06:19.199Z,24.23
2022-12-01T07:08:45.873Z,29.50
2022-12-01T07:11:14.701Z,25.25
2022-12-01T07:13:45.316Z,25.20
2022-12-01T07:16:12.515Z,23.02
2022-12-01T07:18:40.469Z,26.38
2022-12-01T07:21:10.369Z,22.00
2022-12-01T07:23:37.021Z,24.15
2022-12-01T07:26:06.545Z,26.17
2022-12-01T07:28:33.711Z,26.83
2022-12-01T07:31:22.511Z,27.10
2022-12-01T07:33:49.238Z,27.15
2022-12-01T07:36:16.150Z,27.52
2022-12-01T07:38:42.914Z,25.02
2022-12-01T07:41:12.267Z,24.25
2022-12-01T07:43:39.716Z,25.17
2022-12-01T07:46:25.158Z,23.50
2022-12-01T07:48:52.709Z,27.73
2022-12-01T07:51:19.898Z,26.67
2022-12-01T07:53:48.284Z,27.35
2022-12-01T07:56:15.477Z,28.58
2022-12-01T07:58:42.786Z,24.77
2022-12-01T08:01:15.110Z,24.58
2022-12-01T08:03:42.496Z,26.92
2022-12-01T08:06:10.309Z,24.35
2022-12-01T08:08:39.798Z,27.88
2022-12-01T08:11:10.614Z,25.92
2022-12-01T08:13:38.940Z,27.73
2022-12-01T08:16:07.480Z,24.63
2022-12-01T08:18:41.657Z,27.27
2022-12-01T08:21:11.048Z,23.17
2022-12-01T08:23:37.695Z,26.67
2022-12-01T08:26:12.685Z,38.83
2022-12-01T08:28:42.592Z,32.53
2022-12-01T08:31:13.806Z,31.30
2022-12-01T08:33:40.620Z,27.27
2022-12-01T08:36:07.950Z,29.80
2022-12-01T08:38:34.966Z,27.42
2022-12-01T08:41:02.720Z,26.23
2022-12-01T08:43:55.855Z,28.35
2022-12-01T08:46:16.710Z,22.52
2022-12-01T08:48:43.559Z,24.63
2022-12-01T08:51:15.845Z,22.98
2022-12-01T08:53:45.816Z,20.70
2022-12-01T08:58:42.705Z,23.85
2022-12-01T09:01:12.088Z,25.88
2022-12-01T09:03:39.972Z,24.88
2022-12-01T09:06:09.656Z,25.55
2022-12-01T09:08:37.149Z,28.67
2022-12-01T09:11:10.129Z,28.58
2022-12-01T09:13:38.174Z,33.00
2022-12-01T09:16:08.145Z,35.42
2022-12-01T09:21:13.859Z,27.70
2022-12-01T09:23:41.334Z,27.50
2022-12-01T09:26:13.370Z,25.90
2022-12-01T09:28:40.853Z,24.92
2022-12-01T09:31:09.862Z,25.88
2022-12-01T09:33:36.927Z,26.08
2022-12-01T09:36:05.231Z,27.17
2022-12-01T09:38:34.270Z,24.63
2022-12-01T09:41:05.383Z,30.58
2022-12-01T09:43:48.424Z,30.50
2022-12-01T09:46:23.040Z,25.50
2022-12-01T09:48:53.205Z,25.65
2022-12-01T09:51:28.236Z,26.85
2022-12-01T09:53:58.312Z,27.60
2022-12-01T09:59:02.394Z,25.75
2022-12-01T10:01:42.917Z,34.28
2022-12-01T10:04:22.387Z,29.83
2022-12-01T10:06:59.327Z,30.63
2022-12-01T10:09:41.489Z,30.27
2022-12-01T10:12:17.209Z,28.00
2022-12-01T10:14:48.954Z,29.33
2022-12-01T10:17:30.491Z,26.55
2022-12-01T10:20:08.414Z,25.73
2022-12-01T10:22:57.964Z,29.10
2022-12-01T10:25:27.771Z,27.45
2022-12-01T10:28:23.743Z,29.50
2022-12-01T10:30:52.697Z,26.60
2022-12-01T10:33:30.559Z,29.00
2022-12-01T10:35:58.006Z,26.90
2022-12-01T10:38:28.854Z,27.13
2022-12-01T10:40:59.917Z,27.45
2022-12-01T10:43:35.125Z,27.17
2022-12-01T10:46:17.265Z,27.55
2022-12-01T10:48:55.972Z,29.33
2022-12-01T10:51:23.595Z,26.35
2022-12-01T10:53:57.618Z,23.83
2022-12-01T10:56:24.763Z,22.70
2022-12-01T10:58:57.959Z,25.45
2022-12-01T11:01:32.188Z,29.08
2022-12-01T11:04:07.255Z,25.70
2022-12-01T11:06:35.727Z,27.35
2022-12-01T11:09:06.880Z,25.55
2022-12-01T11:11:36.245Z,24.40
2022-12-01T11:14:06.301Z,29.23
2022-12-01T11:19:27.674Z,27.40
2022-12-01T11:21:58.017Z,27.73
2022-12-01T11:26:59.174Z,27.40
2022-12-01T11:29:37.647Z,27.13
2022-12-01T11:32:17.113Z,27.77
2022-12-01T11:34:49.813Z,31.40
2022-12-01T11:37:20.160Z,28.88
2022-12-01T11:42:28.112Z,28.58
2022-12-01T11:45:22.350Z,34.42
2022-12-01T11:48:11.918Z,30.85
2022-12-01T11:50:41.501Z,31.40
2022-12-01T11:53:28.401Z,27.63
2022-12-01T11:56:13.079Z,25.27
2022-12-01T11:58:40.168Z,26.58
2022-12-01T12:01:39.998Z,27.70
2022-12-01T12:04:09.955Z,29.20
2022-12-01T12:07:15.122Z,28.88
2022-12-01T12:09:51.951Z,34.55
2022-12-01T12:12:18.640Z,31.13
2022-12-01T12:15:12.861Z,28.67
2022-12-01T12:17:39.988Z,24.15
2022-12-01T12:20:24.669Z,28.27
2022-12-01T12:23:15.082Z,25.77
2022-12-01T12:26:03.675Z,26.85
2022-12-01T12:29:21.733Z,28.05
2022-12-01T12:32:06.915Z,30.15
2022-12-01T12:35:01.557Z,26.85
2022-12-01T12:38:09.811Z,28.55
2022-12-01T12:40:54.250Z,25.33
2022-12-01T12:43:59.477Z,27.88
2022-12-01T12:46:50.168Z,28.27
2022-12-01T12:49:39.723Z,31.52
2022-12-01T12:52:34.108Z,27.23
2022-12-01T12:55:12.466Z,28.88
2022-12-01T12:57:45.576Z,29.77
2022-12-01T13:00:22.085Z,30.02
2022-12-01T13:02:54.597Z,28.02
2022-12-01T13:05:35.783Z,26.98
2022-12-01T13:08:02.422Z,32.55
2022-12-01T13:10:48.149Z,27.23
2022-12-01T13:13:41.212Z,26.80
2022-12-01T13:16:15.756Z,29.45
2022-12-01T13:18:51.429Z,25.38
2022-12-01T13:21:21.038Z,29.48
2022-12-01T13:23:50.868Z,28.50
2022-12-01T13:26:20.519Z,27.20
2022-12-01T13:28:51.947Z,28.83
2022-12-01T13:31:20.659Z,23.88
2022-12-01T13:34:02.144Z,25.65
2022-12-01T13:36:46.120Z,29.60
2022-12-01T13:39:22.630Z,26.73
2022-12-01T13:42:02.443Z,27.58
2022-12-01T13:44:38.390Z,28.17
2022-12-01T13:47:33.166Z,30.23
2022-12-01T13:50:46.152Z,29.67
2022-12-01T13:53:25.312Z,27.75
2022-12-01T13:55:57.988Z,27.97
2022-12-01T13:58:47.236Z,28.48
2022-12-01T14:01:20.382Z,28.70
2022-12-01T14:04:02.697Z,28.45
2022-12-01T14:06:50.047Z,31.00
2022-12-01T14:09:36.958Z,26.90
2022-12-01T14:12:12.298Z,26.80
2022-12-01T14:14:42.362Z,25.48
2022-12-01T14:19:52.778Z,25.77
2022-12-01T14:22:42.005Z,28.05
2022-12-01T14:25:29.197Z,26.45
2022-12-01T14:28:02.917Z,25.50
2022-12-01T14:30:47.786Z,27.35
2022-12-01T14:33:39.454Z,27.77
2022-12-01T14:36:22.754Z,28.13
2022-12-01T14:38:58.880Z,26.73
2022-12-01T14:41:29.403Z,24.95
2022-12-01T14:44:05.023Z,27.50
2022-12-01T14:46:42.571Z,27.33
2022-12-01T14:49:33.572Z,27.88
2022-12-01T14:52:12.316Z,29.27
2022-12-01T14:54:48.411Z,28.90
2022-12-01T14:57:18.563Z,28.30
2022-12-01T14:59:45.414Z,27.77
2022-12-01T15:02:12.618Z,27.15
2022-12-01T15:05:07.372Z,27.63
2022-12-01T15:07:42.575Z,30.10
2022-12-01T15:10:21.825Z,29.75
2022-12-01T15:12:50.125Z,30.63
2022-12-01T15:15:25.615Z,29.42
2022-12-01T15:17:55.516Z,27.75
2022-12-01T15:20:35.884Z,28.00
2022-12-01T15:23:13.159Z,27.63
2022-12-01T15:25:43.280Z,32.63
2022-12-01T15:30:41.848Z,35.80
2022-12-01T15:33:25.536Z,32.20
2022-12-01T15:35:54.387Z,27.48
2022-12-01T15:38:25.796Z,30.42
2022-12-01T15:41:21.119Z,33.33
2022-12-01T15:43:41.409Z,32.90
2022-12-01T15:46:12.735Z,30.33
2022-12-01T15:48:40.126Z,34.58
2022-12-01T15:51:12.506Z,34.75
2022-12-01T15:53:45.825Z,34.55
2022-12-01T15:56:12.674Z,35.72
2022-12-01T15:58:47.564Z,36.50
2022-12-01T16:01:18.308Z,37.47
2022-12-01T16:03:53.821Z,43.90
2022-12-01T16:06:25.510Z,45.00
2022-12-01T16:08:57.826Z,46.03
2022-12-01T16:11:25.144Z,49.90
2022-12-01T16:14:04.812Z,46.15
2022-12-01T16:16:36.520Z,43.13
2022-12-01T16:19:22.421Z,48.92
2022-12-01T16:21:51.688Z,39.38
2022-12-01T16:24:32.237Z,44.47
2022-12-01T16:27:00.597Z,56.40
2022-12-01T16:29:29.816Z,49.78
2022-12-01T16:32:23.646Z,49.53
2022-12-01T16:34:52.669Z,47.20
2022-12-01T16:37:20.058Z,50.85
2022-12-01T16:39:46.704Z,46.55
2022-12-01T16:42:21.282Z,41.10
2022-12-01T16:44:49.822Z,51.75
2022-12-01T16:47:21.416Z,50.88
2022-12-01T16:49:48.442Z,43.33
2022-12-01T16:52:43.079Z,48.08
2022-12-01T16:55:02.177Z,42.97
2022-12-01T16:57:28.902Z,34.67
2022-12-01T16:59:55.679Z,28.45
2022-12-01T17:02:22.354Z,29.33
2022-12-01T17:04:49.393Z,27.80
2022-12-01T17:07:16.373Z,29.25
2022-12-01T17:09:43.010Z,29.52
2022-12-01T17:12:09.816Z,30.63
2022-12-01T17:14:36.494Z,29.85
2022-12-01T17:17:03.833Z,38.88
2022-12-01T17:19:30.556Z,36.58
2022-12-01T17:21:57.278Z,33.25
2022-12-01T17:24:25.930Z,41.92
2022-12-01T17:26:52.654Z,28.30
2022-12-01T17:29:19.390Z,26.75
2022-12-01T17:31:46.508Z,29.63
2022-12-01T17:34:16.294Z,29.00
2022-12-01T17:36:44.063Z,23.65
2022-12-01T17:39:15.022Z,28.83
2022-12-01T17:41:42.204Z,30.20
2022-12-01T17:44:08.989Z,28.08
2022-12-01T17:46:35.643Z,32.80
2022-12-01T17:49:08.536Z,41.45
2022-12-01T17:51:36.580Z,54.17
2022-12-01T17:54:03.588Z,48.72
2022-12-01T17:56:30.695Z,36.88
2022-12-01T17:58:57.308Z,38.88
2022-12-01T18:01:29.971Z,50.50
2022-12-01T18:03:57.947Z,41.85
2022-12-01T18:06:25.740Z,39.40
2022-12-01T18:08:53.168Z,33.92
2022-12-01T18:11:20.493Z,37.67
2022-12-01T18:13:49.382Z,37.80
2022-12-01T18:16:29.488Z,32.22
2022-12-01T18:18:58.210Z,36.03
2022-12-01T18:21:25.962Z,34.08
2022-12-01T18:23:55.325Z,35.10
2022-12-01T18:26:22.725Z,31.20
2022-12-01T18:29:16.261Z,32.58
2022-12-01T18:31:43.225Z,31.77
2022-12-01T18:34:10.708Z,46.90
2022-12-01T18:36:40.450Z,47.45
2022-12-01T18:39:08.899Z,53.92
2022-12-01T18:41:36.588Z,38.45
2022-12-01T18:44:03.642Z,43.03
2022-12-01T18:46:30.597Z,36.03
2022-12-01T18:49:02.012Z,34.15
2022-12-01T18:51:30.162Z,34.42
2022-12-01T18:53:58.754Z,35.35
2022-12-01T18:56:26.226Z,33.08
2022-12-01T18:58:57.392Z,34.90
2022-12-01T19:01:32.075Z,36.95
2022-12-01T19:04:00.060Z,35.75
2022-12-01T19:06:28.069Z,37.08
2022-12-01T19:08:59.936Z,38.35
2022-12-01T19:11:27.985Z,41.97
2022-12-01T19:13:56.445Z,41.08
2022-12-01T19:16:23.857Z,41.00
2022-12-01T19:18:50.635Z,36.65
2022-12-01T19:21:18.985Z,43.10
2022-12-01T19:23:46.856Z,39.53
2022-12-01T19:26:16.076Z,36.17
2022-12-01T19:28:45.410Z,42.70
2022-12-01T19:31:16.310Z,36.60
2022-12-01T19:33:43.366Z,44.55
2022-12-01T19:36:15.330Z,41.95
2022-12-01T19:38:42.417Z,41.78
2022-12-01T19:41:09.589Z,39.22
2022-12-01T19:43:37.102Z,41.72
2022-12-01T19:46:10.708Z,40.65
2022-12-01T19:48:37.484Z,42.65
2022-12-01T19:51:04.570Z,47.08
2022-12-01T19:53:33.788Z,45.72
2022-12-01T19:56:05.138Z,51.47
2022-12-01T19:58:35.933Z,45.70
2022-12-01T20:01:11.392Z,45.33
2022-12-01T20:03:39.133Z,51.05
2022-12-01T20:06:10.135Z,53.25
2022-12-01T20:08:37.026Z,49.65
2022-12-01T20:11:04.681Z,56.28
2022-12-01T20:13:38.409Z,47.67
2022-12-01T20:16:08.251Z,47.40
2022-12-01T20:18:35.949Z,45.13
2022-12-01T20:21:16.527Z,49.47
2022-12-01T20:24:00.756Z,48.78
2022-12-01T20:26:31.159Z,51.70
2022-12-01T20:29:02.629Z,51.08
2022-12-01T20:31:31.245Z,50.85
2022-12-01T20:34:00.579Z,48.10
2022-12-01T20:36:27.777Z,43.58
2022-12-01T20:38:55.115Z,43.20
2022-12-01T20:41:22.055Z,45.05
2022-12-01T20:43:48.884Z,44.60
2022-12-01T20:46:15.927Z,43.20
2022-12-01T20:48:43.021Z,48.03
2022-12-01T20:51:11.490Z,50.42
2022-12-01T20:53:38.193Z,54.70
2022-12-01T20:56:07.644Z,73.78
2022-12-01T20:58:37.476Z,61.67
2022-12-01T21:01:10.285Z,62.30
2022-12-01T21:03:39.080Z,61.72
2022-12-01T21:06:06.641Z,59.05
2022-12-01T21:08:33.714Z,55.65
2022-12-01T21:11:13.411Z,58.97
2022-12-01T21:13:42.201Z,54.35
2022-12-01T21:16:29.074Z,50.35
2022-12-01T21:19:13.640Z,57.30
2022-12-01T21:21:41.174Z,57.80
2022-12-01T21:24:07.744Z,55.50
2022-12-01T21:26:37.406Z,53.47
2022-12-01T21:29:18.958Z,56.58
2022-12-01T21:31:48.709Z,57.05
2022-12-01T21:34:24.220Z,53.80
2022-12-01T21:36:53.223Z,57.03
2022-12-01T21:39:22.349Z,59.38
2022-12-01T21:41:51.818Z,62.20
2022-12-01T21:44:21.594Z,63.40
2022-12-01T21:46:56.512Z,54.92
2022-12-01T21:49:38.619Z,58.00
2022-12-01T21:52:30.237Z,54.60
2022-12-01T21:55:15.408Z,60.88
2022-12-01T21:57:45.995Z,55.47
2022-12-01T22:00:29.888Z,56.85
2022-12-01T22:03:08.672Z,55.78
2022-12-01T22:05:42.008Z,59.35
2022-12-01T22:08:14.704Z,57.50
2022-12-01T22:11:00.569Z,63.15
2022-12-01T22:13:39.721Z,59.88
2022-12-01T22:16:14.331Z,66.00
2022-12-01T22:18:44.615Z,63.30
2022-12-01T22:21:23.623Z,55.20
2022-12-01T22:23:59.460Z,59.40
2022-12-01T22:26:26.371Z,58.40
2022-12-01T22:28:58.508Z,60.55
2022-12-01T22:31:25.974Z,62.42
2022-12-01T22:34:01.534Z,56.13
2022-12-01T22:36:33.426Z,54.80
2022-12-01T22:39:01.354Z,59.80
2022-12-01T22:41:28.807Z,55.53
2022-12-01T22:43:57.275Z,56.10
2022-12-01T22:46:33.181Z,50.53
2022-12-01T22:49:06.094Z,49.38
2022-12-01T22:51:43.633Z,52.35
2022-12-01T22:54:10.293Z,53.10
2022-12-01T22:56:39.735Z,57.17
2022-12-01T22:59:19.591Z,53.17
2022-12-01T23:02:13.508Z,54.67
2022-12-01T23:04:45.108Z,56.20
2022-12-01T23:07:33.280Z,54.50
2022-12-01T23:10:26.491Z,52.72
2022-12-01T23:12:54.947Z,51.20
2022-12-01T23:15:44.449Z,50.38
2022-12-01T23:18:27.838Z,54.47
2022-12-01T23:20:59.925Z,55.72
2022-12-01T23:23:29.959Z,55.22
2022-12-01T23:25:57.531Z,53.22
2022-12-01T23:28:25.153Z,51.58
2022-12-01T23:30:55.630Z,60.40
2022-12-01T23:33:24.738Z,54.08
2022-12-01T23:35:58.420Z,57.72
2022-12-01T23:38:31.534Z,59.13
2022-12-01T23:41:02.380Z,59.00
2022-12-01T23:43:33.583Z,59.60
2022-12-01T23:46:07.575Z,59.05
2022-12-01T23:48:39.415Z,57.35
2022-12-01T23:51:15.945Z,62.42
2022-12-01T23:53:43.370Z,56.65
2022-12-01T23:56:18.703Z,57.45
2022-12-01T23:58:45.442Z,60.00
